Time;durP1;ratioP1;P1;durP2;ratioP2;P2;SDS_P1;SDS_P2;PMS_P1;PMS_P2;Temp;Humidity;BMP_temperature;BMP_pressure;BME280_temperature;BME280_humidity;BME280_pressure;Samples;Min_cycle;Max_cycle;Signal;HPM_P1;HPM_P2
2022/09/28 00:01:19;;;;;;;6.88;2.42;;;21.40;99.90;;;;;;5071364;28;20040;-74
2022/09/28 00:03:49;;;;;;;6.93;2.03;;;21.30;99.90;;;;;;5043725;28;20037;-74
2022/09/28 00:06:19;;;;;;;3.92;1.60;;;21.30;99.90;;;;;;5036525;28;20052;-74
2022/09/28 00:08:48;;;;;;;3.28;1.80;;;21.30;99.90;;;;;;5067311;28;20163;-77
2022/09/28 00:11:19;;;;;;;4.35;2.60;;;21.30;99.90;;;;;;5046916;28;20032;-73
2022/09/28 00:13:52;;;;;;;3.88;1.50;;;21.30;99.90;;;;;;5032319;28;20055;-74
2022/09/28 00:16:24;;;;;;;4.82;2.42;;;21.30;99.90;;;;;;5044732;28;20033;-73
2022/09/28 00:18:52;;;;;;;7.75;2.85;;;21.30;99.90;;;;;;5031826;28;20041;-74
2022/09/28 00:21:32;;;;;;;6.28;2.20;;;21.30;99.90;;;;;;5052997;28;20185;-74
2022/09/28 00:24:14;;;;;;;3.42;1.60;;;21.30;99.90;;;;;;5036220;28;20036;-85
2022/09/28 00:26:53;;;;;;;5.13;2.00;;;21.30;99.90;;;;;;5064500;28;20041;-74
2022/09/28 00:29:23;;;;;;;3.78;2.00;;;21.30;99.90;;;;;;5020418;28;20455;-80
2022/09/28 00:31:58;;;;;;;4.43;1.73;;;21.30;99.90;;;;;;5017489;28;20131;-74
2022/09/28 00:34:26;;;;;;;5.40;2.17;;;21.30;99.90;;;;;;5040515;28;20049;-74
2022/09/28 00:36:54;;;;;;;5.13;1.83;;;21.30;99.90;;;;;;5047597;28;20067;-74
2022/09/28 00:39:21;;;;;;;6.22;2.58;;;21.10;99.90;;;;;;5048927;28;20039;-74
2022/09/28 00:41:49;;;;;;;6.38;1.52;;;21.00;99.90;;;;;;5072098;28;20752;-74
2022/09/28 00:44:26;;;;;;;5.18;2.40;;;20.90;99.90;;;;;;5053877;28;20451;-74
2022/09/28 00:47:20;;;;;;;3.90;1.85;;;20.80;99.90;;;;;;5037120;28;20068;-74
2022/09/28 00:49:57;;;;;;;5.53;2.25;;;20.80;99.90;;;;;;5043531;28;20075;-74
2022/09/28 00:52:43;;;;;;;3.63;1.40;;;20.70;99.90;;;;;;5037253;28;20609;-78
2022/09/28 00:55:20;;;;;;;3.75;1.90;;;20.60;99.90;;;;;;5036384;28;20064;-73
2022/09/28 00:57:57;;;;;;;7.32;2.45;;;20.60;99.90;;;;;;5024748;28;20037;-74
2022/09/28 01:00:24;;;;;;;4.57;1.63;;;20.60;99.90;;;;;;5047426;28;20044;-74
2022/09/28 01:02:52;;;;;;;6.10;1.95;;;20.60;99.90;;;;;;5017404;28;20506;-73
2022/09/28 01:05:21;;;;;;;5.55;1.80;;;20.60;99.90;;;;;;5037193;28;20098;-74
2022/09/28 01:07:50;;;;;;;3.90;2.35;;;20.60;99.90;;;;;;5017718;28;20056;-74
2022/09/28 01:10:17;;;;;;;4.97;1.48;;;20.70;99.90;;;;;;5032082;28;20056;-74
2022/09/28 01:12:45;;;;;;;4.40;1.90;;;20.80;99.90;;;;;;5043198;28;20131;-76
2022/09/28 01:15:14;;;;;;;5.32;1.88;;;20.70;99.90;;;;;;5049696;28;20049;-74
2022/09/28 01:18:28;;;;;;;5.03;1.90;;;20.70;99.90;;;;;;5033697;28;20041;-76
2022/09/28 01:21:01;;;;;;;4.00;2.00;;;20.70;99.90;;;;;;5034894;28;20092;-74
2022/09/28 01:23:41;;;;;;;10.10;1.95;;;20.80;99.90;;;;;;5050091;28;20037;-75
2022/09/28 01:26:38;;;;;;;4.10;1.83;;;20.80;99.90;;;;;;5033601;28;20052;-74
2022/09/28 01:29:16;;;;;;;5.40;1.70;;;20.80;99.90;;;;;;5021220;28;20073;-76
2022/09/28 01:31:50;;;;;;;5.22;2.03;;;20.80;99.90;;;;;;5013393;28;20443;-73
2022/09/28 01:34:30;;;;;;;4.63;1.60;;;20.90;99.90;;;;;;5013718;28;20507;-78
2022/09/28 01:37:03;;;;;;;4.72;1.73;;;20.90;99.90;;;;;;5013831;28;20037;-74
2022/09/28 01:39:36;;;;;;;5.82;3.08;;;20.90;99.90;;;;;;5014073;28;20053;-75
2022/09/28 01:42:10;;;;;;;3.55;1.58;;;20.90;99.90;;;;;;5013822;28;20739;-74
2022/09/28 01:44:42;;;;;;;7.55;2.33;;;20.90;99.90;;;;;;4997428;28;20053;-74
2022/09/28 01:47:12;;;;;;;3.97;1.90;;;20.80;99.90;;;;;;4996962;28;20064;-78
2022/09/28 01:50:05;;;;;;;4.30;1.65;;;20.80;99.90;;;;;;5013120;28;20100;-74
2022/09/28 01:52:54;;;;;;;3.58;2.00;;;20.70;99.90;;;;;;5013505;28;20049;-73
2022/09/28 01:55:36;;;;;;;5.03;2.45;;;20.60;99.90;;;;;;5013929;28;20388;-75
2022/09/28 01:58:38;;;;;;;4.07;1.58;;;20.70;99.90;;;;;;5014583;28;20389;-74
2022/09/28 02:01:12;;;;;;;4.53;1.83;;;20.70;99.90;;;;;;5031314;28;20123;-74
2022/09/28 02:03:48;;;;;;;4.50;1.80;;;20.60;99.90;;;;;;5013257;28;20045;-75
2022/09/28 02:06:21;;;;;;;4.80;1.95;;;20.50;99.90;;;;;;5029607;28;20045;-74
2022/09/28 02:08:53;;;;;;;3.45;1.55;;;20.40;99.90;;;;;;5029128;28;20044;-74
2022/09/28 02:11:28;;;;;;;4.97;1.80;;;20.40;99.90;;;;;;5014059;28;20045;-74
2022/09/28 02:14:06;;;;;;;4.57;1.45;;;20.30;99.90;;;;;;5033809;28;20437;-74
2022/09/28 02:16:43;;;;;;;2.63;1.80;;;20.20;99.90;;;;;;5000436;28;20044;-74
2022/09/28 02:19:15;;;;;;;3.35;1.60;;;20.30;99.90;;;;;;5000203;28;20052;-74
2022/09/28 02:22:22;;;;;;;2.47;1.63;;;20.40;99.90;;;;;;5017069;28;20114;-74
2022/09/28 02:25:06;;;;;;;2.85;1.83;;;20.40;99.90;;;;;;5016490;28;20518;-74
2022/09/28 02:27:44;;;;;;;3.67;2.65;;;20.30;99.90;;;;;;5031837;28;20128;-75
2022/09/28 02:30:12;;;;;;;4.97;1.40;;;20.40;99.90;;;;;;5031299;28;20437;-74
2022/09/28 02:32:44;;;;;;;2.90;1.65;;;20.50;99.90;;;;;;5030623;28;20390;-74
2022/09/28 02:35:15;;;;;;;5.38;1.95;;;20.60;99.90;;;;;;5032559;28;20776;-74
2022/09/28 02:37:44;;;;;;;4.70;2.10;;;20.60;99.90;;;;;;5032939;28;20503;-76
2022/09/28 02:40:13;;;;;;;3.35;1.85;;;20.70;99.90;;;;;;5019215;28;20045;-74
2022/09/28 02:43:33;;;;;;;8.10;2.47;;;20.70;99.90;;;;;;5036074;28;20045;-74
2022/09/28 02:46:22;;;;;;;5.07;2.10;;;20.70;99.90;;;;;;5031129;28;20394;-74
2022/09/28 02:49:20;;;;;;;5.97;2.05;;;20.70;99.90;;;;;;5035440;28;20106;-74
2022/09/28 02:52:17;;;;;;;5.13;2.03;;;20.70;99.90;;;;;;5004014;28;20083;-74
2022/09/28 02:55:17;;;;;;;4.50;2.35;;;20.70;99.90;;;;;;5003544;28;20140;-74
2022/09/28 02:57:59;;;;;;;3.97;1.73;;;20.70;99.90;;;;;;5035539;28;20155;-74
2022/09/28 03:00:31;;;;;;;4.25;2.45;;;20.70;99.90;;;;;;5003255;28;20053;-73
2022/09/28 03:03:08;;;;;;;4.20;2.03;;;20.60;99.90;;;;;;5073480;28;20090;-74
2022/09/28 03:06:00;;;;;;;6.97;2.20;;;20.50;99.90;;;;;;5023088;28;20243;-74
2022/09/28 03:09:04;;;;;;;8.65;2.97;;;20.50;99.90;;;;;;5023618;28;20048;-74
2022/09/28 03:11:39;;;;;;;10.23;2.85;;;20.40;99.90;;;;;;5039929;28;20094;-73
2022/09/28 03:14:08;;;;;;;4.15;2.08;;;20.40;99.90;;;;;;5022171;28;20147;-73
2022/09/28 03:16:45;;;;;;;5.88;2.35;;;20.30;99.90;;;;;;5038888;28;20044;-74
2022/09/28 03:19:14;;;;;;;5.72;3.15;;;20.10;99.90;;;;;;5055579;28;20049;-74
2022/09/28 03:21:42;;;;;;;3.63;2.30;;;20.10;99.90;;;;;;5055309;28;20123;-77
2022/09/28 03:24:10;;;;;;;5.63;1.88;;;20.00;99.90;;;;;;5037405;28;20249;-74
2022/09/28 03:26:38;;;;;;;8.68;2.15;;;19.80;99.90;;;;;;5038645;28;20449;-74
2022/09/28 03:29:06;;;;;;;6.63;2.75;;;19.90;99.90;;;;;;5055605;28;20063;-74
2022/09/28 03:31:34;;;;;;;3.80;2.10;;;19.80;99.90;;;;;;5038829;28;20364;-75
2022/09/28 03:34:02;;;;;;;3.20;2.05;;;19.80;99.90;;;;;;5054915;28;20398;-74
2022/09/28 03:36:30;;;;;;;6.50;2.28;;;19.60;99.90;;;;;;5038721;28;20037;-74
2022/09/28 03:38:58;;;;;;;3.95;2.25;;;19.50;99.90;;;;;;5038653;28;20135;-74
2022/09/28 03:41:26;;;;;;;5.20;2.17;;;19.40;99.90;;;;;;5038264;28;20272;-75
2022/09/28 03:43:55;;;;;;;6.47;2.88;;;19.30;99.90;;;;;;5038793;28;20479;-74
2022/09/28 03:46:24;;;;;;;5.45;3.00;;;19.40;99.90;;;;;;5022824;28;20059;-74
2022/09/28 03:48:57;;;;;;;4.30;1.95;;;19.50;99.90;;;;;;5038164;28;20090;-74
2022/09/28 03:51:25;;;;;;;5.70;2.90;;;19.50;99.90;;;;;;5055001;28;20104;-75
2022/09/28 03:53:53;;;;;;;6.38;3.08;;;19.60;99.90;;;;;;5054289;28;20140;-74
2022/09/28 03:56:20;;;;;;;4.93;2.60;;;19.70;99.90;;;;;;5054752;28;20505;-74
2022/09/28 03:58:48;;;;;;;7.50;2.63;;;19.70;99.90;;;;;;5054433;28;20041;-75
2022/09/28 04:01:15;;;;;;;10.23;3.08;;;19.80;99.90;;;;;;5038070;28;20044;-74
2022/09/28 04:03:45;;;;;;;7.93;3.00;;;19.80;99.90;;;;;;5054790;28;20548;-74
2022/09/28 04:06:13;;;;;;;6.32;2.70;;;19.80;99.90;;;;;;5037796;28;20048;-74
2022/09/28 04:08:42;;;;;;;7.97;2.90;;;19.80;99.90;;;;;;5037810;28;20044;-78
2022/09/28 04:11:10;;;;;;;4.63;3.53;;;19.80;99.90;;;;;;5026974;28;20052;-76
2022/09/28 04:13:37;;;;;;;4.10;2.90;;;19.80;99.90;;;;;;5018044;28;20049;-74
2022/09/28 04:16:10;;;;;;;6.78;3.42;;;19.70;99.90;;;;;;5017915;28;20045;-73
2022/09/28 04:18:38;;;;;;;7.80;3.17;;;19.70;99.90;;;;;;5018591;28;20053;-74
2022/09/28 04:21:14;;;;;;;5.90;2.08;;;19.60;99.90;;;;;;5032963;28;20072;-74
2022/09/28 04:23:45;;;;;;;7.00;2.45;;;19.60;99.90;;;;;;5018121;28;20045;-74
2022/09/28 04:26:21;;;;;;;15.35;2.75;;;19.60;99.90;;;;;;5018126;28;20718;-74
2022/09/28 04:31:40;;;;;;;6.05;3.10;;;19.60;99.90;;;;;;5018599;28;20095;-73
2022/09/28 04:34:08;;;;;;;10.02;3.58;;;19.70;99.90;;;;;;5034328;28;20368;-74
2022/09/28 04:36:36;;;;;;;9.02;3.28;;;19.60;99.90;;;;;;5002110;28;20059;-74
2022/09/28 04:39:04;;;;;;;14.30;4.32;;;19.60;99.90;;;;;;5017700;28;20041;-74
2022/09/28 04:41:32;;;;;;;7.03;2.92;;;19.60;99.90;;;;;;5034331;28;20037;-74
2022/09/28 04:44:00;;;;;;;6.85;3.08;;;19.70;99.90;;;;;;5017723;28;20067;-74
2022/09/28 04:46:28;;;;;;;5.70;2.92;;;19.70;99.90;;;;;;5017875;28;20049;-74
2022/09/28 04:49:16;;;;;;;6.28;2.90;;;19.70;99.90;;;;;;5032826;28;20056;-74
2022/09/28 04:51:51;;;;;;;9.95;3.40;;;19.70;99.90;;;;;;5017085;28;20049;-78
2022/09/28 04:54:18;;;;;;;4.95;2.65;;;19.60;99.90;;;;;;5031766;28;20045;-74
2022/09/28 04:56:46;;;;;;;8.75;3.03;;;19.60;99.90;;;;;;5033829;28;20041;-74
2022/09/28 04:59:13;;;;;;;5.70;2.83;;;19.60;99.90;;;;;;5017850;28;20044;-74
2022/09/28 05:01:43;;;;;;;8.05;3.15;;;19.60;99.90;;;;;;5016828;28;20055;-73
2022/09/28 05:04:40;;;;;;;8.48;2.70;;;19.70;99.90;;;;;;5038672;28;20049;-86
2022/09/28 05:07:35;;;;;;;6.72;3.03;;;19.90;99.90;;;;;;5005833;28;20053;-74
2022/09/28 05:10:05;;;;;;;10.18;3.90;;;20.00;99.90;;;;;;5017349;28;20075;-74
2022/09/28 05:12:34;;;;;;;9.38;4.85;;;20.10;99.90;;;;;;5017898;28;20045;-74
2022/09/28 05:15:02;;;;;;;5.97;3.17;;;20.30;99.90;;;;;;5033873;28;20044;-74
2022/09/28 05:17:30;;;;;;;4.13;2.85;;;20.40;99.90;;;;;;5050218;28;20743;-74
2022/09/28 05:20:40;;;;;;;6.15;3.42;;;20.50;99.90;;;;;;5036462;28;20495;-74
2022/09/28 05:23:11;;;;;;;7.35;3.40;;;20.70;99.90;;;;;;5018034;28;20045;-74
2022/09/28 05:25:42;;;;;;;4.07;2.67;;;21.00;99.90;;;;;;5017803;28;20124;-76
2022/09/28 05:28:28;;;;;;;7.32;2.95;;;21.10;99.90;;;;;;5003271;28;20057;-74
2022/09/28 05:31:16;;;;;;;6.85;3.65;;;21.30;99.90;;;;;;5033955;28;20079;-74
2022/09/28 05:34:05;;;;;;;4.57;2.60;;;21.40;99.90;;;;;;5004414;28;20391;-74
2022/09/28 05:36:34;;;;;;;10.75;3.50;;;21.50;99.90;;;;;;5001336;28;20045;-73
2022/09/28 05:39:02;;;;;;;5.50;2.80;;;21.60;99.90;;;;;;5017684;28;20147;-73
2022/09/28 05:41:30;;;;;;;7.28;3.28;;;21.80;99.90;;;;;;5017556;28;20758;-74
2022/09/28 05:43:59;;;;;;;7.53;4.25;;;22.00;99.90;;;;;;5017925;28;20045;-74
2022/09/28 05:46:28;;;;;;;10.70;4.65;;;22.20;99.90;;;;;;5034337;28;20471;-74
2022/09/28 05:48:59;;;;;;;13.75;5.25;;;22.30;99.90;;;;;;5034213;28;20045;-74
2022/09/28 05:51:27;;;;;;;13.60;5.32;;;22.50;99.90;;;;;;5017200;28;20135;-73
2022/09/28 05:53:55;;;;;;;14.18;6.40;;;22.60;99.90;;;;;;5033602;28;20079;-74
2022/09/28 05:56:28;;;;;;;13.30;5.88;;;22.80;99.90;;;;;;5051810;28;20503;-74
2022/09/28 05:58:57;;;;;;;15.60;6.50;;;22.90;99.90;;;;;;5033371;28;20045;-74
2022/09/28 06:01:28;;;;;;;10.40;5.53;;;22.90;99.90;;;;;;5001616;28;20057;-74
2022/09/28 06:03:58;;;;;;;16.67;5.75;;;23.20;99.90;;;;;;5050380;28;20514;-74
2022/09/28 06:06:26;;;;;;;8.75;4.57;;;23.30;99.90;;;;;;5020868;28;20060;-73
2022/09/28 06:08:53;;;;;;;10.90;4.38;;;23.50;99.90;;;;;;5036324;28;20048;-74
2022/09/28 06:11:36;;;;;;;13.07;3.85;;;23.50;99.90;;;;;;5072244;28;20145;-73
2022/09/28 06:14:16;;;;;;;9.77;4.30;;;23.70;99.90;;;;;;5038304;28;20147;-74
2022/09/28 06:16:44;;;;;;;9.18;3.88;;;23.80;99.90;;;;;;5055846;28;20048;-74
2022/09/28 06:19:12;;;;;;;7.70;3.67;;;23.90;99.90;;;;;;5040407;28;20135;-74
2022/09/28 06:22:04;;;;;;;10.00;4.57;;;24.00;99.90;;;;;;5057579;28;20048;-73
2022/09/28 06:24:37;;;;;;;7.82;2.92;;;24.00;99.90;;;;;;5025298;28;20044;-73
2022/09/28 06:27:04;;;;;;;8.07;2.92;;;24.10;99.90;;;;;;5040194;28;20045;-73
2022/09/28 06:29:32;;;;;;;7.82;2.72;;;24.20;99.90;;;;;;5074937;28;20037;-73
2022/09/28 06:32:01;;;;;;;6.63;2.80;;;24.40;99.90;;;;;;5040273;28;20090;-73
2022/09/28 06:34:29;;;;;;;6.82;3.63;;;24.70;99.90;;;;;;5056239;28;20076;-73
2022/09/28 06:36:57;;;;;;;3.63;2.10;;;25.00;99.90;;;;;;5056699;28;20101;-73
2022/09/28 06:39:25;;;;;;;5.00;2.00;;;25.30;99.90;;;;;;5074285;28;20379;-74
2022/09/28 06:41:52;;;;;;;3.65;2.30;;;25.70;99.90;;;;;;5039810;28;20482;-79
2022/09/28 06:44:20;;;;;;;5.85;2.83;;;25.90;99.90;;;;;;5040028;28;20076;-73
2022/09/28 06:47:23;;;;;;;6.03;2.13;;;26.10;99.90;;;;;;5056949;28;20041;-75
2022/09/28 06:50:11;;;;;;;5.47;2.20;;;26.40;99.90;;;;;;5056574;28;20041;-77
2022/09/28 06:53:12;;;;;;;4.47;2.40;;;26.70;99.90;;;;;;5028065;28;20048;-74
2022/09/28 06:56:01;;;;;;;8.40;2.47;;;27.00;99.90;;;;;;5060051;28;20048;-74
2022/09/28 06:58:31;;;;;;;8.73;1.88;;;27.20;99.90;;;;;;5039094;28;20083;-74
2022/09/28 07:00:59;;;;;;;3.53;1.70;;;27.20;99.90;;;;;;5040171;28;20478;-74
2022/09/28 07:03:39;;;;;;;3.97;2.13;;;26.90;99.90;;;;;;5040215;28;20153;-73
2022/09/28 07:06:17;;;;;;;6.15;2.00;;;26.70;99.90;;;;;;5074900;28;20079;-74
2022/09/28 07:09:13;;;;;;;4.60;2.10;;;26.40;99.90;;;;;;5039985;28;20056;-73
2022/09/28 07:12:00;;;;;;;9.23;2.75;;;26.00;99.90;;;;;;5072565;28;20494;-74
2022/09/28 07:14:41;;;;;;;4.82;1.65;;;25.80;99.90;;;;;;5053530;28;20107;-77
2022/09/28 07:17:13;;;;;;;6.50;2.75;;;25.50;99.90;;;;;;5038671;28;20454;-74
2022/09/28 07:19:43;;;;;;;8.32;2.03;;;25.30;99.90;;;;;;5039598;28;20054;-74
2022/09/28 07:22:13;;;;;;;5.22;1.80;;;25.10;99.90;;;;;;5023358;28;20060;-73
2022/09/28 07:24:46;;;;;;;8.40;2.70;;;25.10;99.90;;;;;;5021095;28;20498;-74
2022/09/28 07:27:32;;;;;;;3.55;2.25;;;25.10;99.90;;;;;;5060490;28;20445;-73
2022/09/28 07:30:15;;;;;;;15.27;3.30;;;25.10;99.90;;;;;;5022633;28;20048;-74
2022/09/28 07:33:05;;;;;;;9.60;3.15;;;25.30;99.90;;;;;;5035092;28;20045;-74
2022/09/28 07:35:52;;;;;;;8.23;2.67;;;25.50;99.90;;;;;;5046946;28;20119;-74
2022/09/28 07:38:21;;;;;;;7.35;2.40;;;26.00;99.90;;;;;;5009214;28;20511;-74
2022/09/28 07:43:41;;;;;;;6.38;2.08;;;26.50;99.90;;;;;;5039407;28;20053;-75
2022/09/28 07:46:12;;;;;;;5.68;1.80;;;26.80;99.90;;;;;;5038948;28;20047;-74
2022/09/28 07:48:50;;;;;;;4.38;1.77;;;27.00;99.90;;;;;;5038366;28;20102;-74
2022/09/28 07:51:33;;;;;;;5.45;2.10;;;27.20;99.90;;;;;;5073081;28;20812;-74
2022/09/28 07:54:21;;;;;;;5.50;1.92;;;27.30;99.90;;;;;;5055394;28;20048;-74
2022/09/28 07:57:12;;;;;;;5.28;1.70;;;27.40;99.90;;;;;;5041493;28;20756;-74
2022/09/28 07:59:59;;;;;;;8.02;2.08;;;27.50;99.30;;;;;;5041345;28;20048;-74
2022/09/28 08:02:40;;;;;;;5.65;1.77;;;27.50;99.00;;;;;;5040818;28;20044;-74
2022/09/28 08:05:08;;;;;;;3.70;2.20;;;27.60;99.20;;;;;;5038482;28;20072;-74
2022/09/28 08:07:37;;;;;;;7.05;2.35;;;27.60;99.30;;;;;;5053873;28;20052;-76
2022/09/28 08:10:08;;;;;;;7.55;2.08;;;27.50;99.10;;;;;;5054270;28;20059;-74
2022/09/28 08:12:55;;;;;;;4.03;1.55;;;27.60;98.90;;;;;;5072704;28;20217;-74
2022/09/28 08:15:35;;;;;;;6.18;2.20;;;27.70;98.80;;;;;;5019304;28;20185;-74
2022/09/28 08:18:26;;;;;;;4.07;1.55;;;27.70;98.10;;;;;;5033130;28;20045;-74
2022/09/28 08:23:39;;;;;;;7.55;2.65;;;27.80;97.90;;;;;;5051151;28;20409;-74
2022/09/28 08:26:07;;;;;;;4.63;2.60;;;27.70;97.20;;;;;;5033309;28;20056;-76
2022/09/28 08:28:36;;;;;;;5.47;2.40;;;27.70;97.40;;;;;;5048877;28;20041;-76
2022/09/28 08:31:23;;;;;;;4.53;2.15;;;27.80;97.30;;;;;;5048972;28;20048;-77
2022/09/28 08:34:17;;;;;;;7.45;2.15;;;27.90;97.50;;;;;;5016224;28;20044;-77
2022/09/28 08:37:14;;;;;;;4.20;1.88;;;27.80;96.00;;;;;;5016747;28;20041;-76
2022/09/28 08:40:23;;;;;;;6.82;3.10;;;27.90;96.30;;;;;;4952992;28;20055;-76
2022/09/28 08:43:25;;;;;;;8.18;2.60;;;27.80;96.50;;;;;;5023283;28;20500;-76
2022/09/28 08:46:16;;;;;;;5.90;2.63;;;27.80;96.50;;;;;;5022108;28;20131;-77
2022/09/28 08:49:11;;;;;;;5.78;2.38;;;27.90;97.10;;;;;;5029714;28;20045;-77
2022/09/28 08:52:35;;;;;;;7.78;2.88;;;28.00;96.70;;;;;;4987456;28;20042;-75
2022/09/28 08:55:35;;;;;;;3.42;1.90;;;28.00;95.70;;;;;;4971745;28;20054;-78
2022/09/28 08:58:21;;;;;;;3.83;1.40;;;28.00;95.20;;;;;;5015439;28;20063;-76
2022/09/28 09:00:51;;;;;;;3.65;1.63;;;27.90;94.50;;;;;;5030729;28;20189;-76
2022/09/28 09:03:32;;;;;;;6.45;1.70;;;28.00;94.30;;;;;;5020138;28;20061;-76
2022/09/28 09:07:04;;;;;;;5.82;1.98;;;27.90;94.20;;;;;;4952440;28;20165;-76
2022/09/28 09:10:01;;;;;;;4.32;1.63;;;27.80;94.00;;;;;;5041944;28;20057;-76
2022/09/28 09:12:57;;;;;;;2.85;1.60;;;27.90;94.10;;;;;;5014241;28;20098;-76
2022/09/28 09:15:32;;;;;;;5.00;2.08;;;28.10;93.90;;;;;;5040140;28;20060;-76
2022/09/28 09:18:18;;;;;;;3.55;1.40;;;28.20;93.70;;;;;;5047050;28;20809;-75
2022/09/28 09:21:01;;;;;;;6.50;1.70;;;28.00;93.10;;;;;;5047155;28;20051;-76
2022/09/28 09:23:56;;;;;;;3.63;1.50;;;27.80;92.90;;;;;;5039428;28;20037;-76
2022/09/28 09:26:38;;;;;;;4.05;1.50;;;27.80;93.60;;;;;;5002222;28;20053;-76
2022/09/28 09:29:49;;;;;;;5.22;1.63;;;27.80;93.20;;;;;;5001936;28;20115;-75
2022/09/28 09:32:40;;;;;;;5.28;1.65;;;27.80;93.20;;;;;;5042491;28;20048;-76
2022/09/28 09:35:39;;;;;;;5.72;1.85;;;28.10;93.60;;;;;;5034486;28;20044;-76
2022/09/28 09:39:23;;;;;;;13.05;2.00;;;28.30;93.40;;;;;;4967763;28;20078;-76
2022/09/28 09:42:25;;;;;;;3.88;1.75;;;28.30;93.00;;;;;;4970898;28;20057;-74
2022/09/28 09:45:45;;;;;;;6.63;1.50;;;28.00;93.00;;;;;;5033710;28;20063;-74
2022/09/28 09:48:57;;;;;;;3.70;1.67;;;28.00;92.90;;;;;;5044975;28;20059;-75
2022/09/28 09:51:41;;;;;;;5.53;1.58;;;27.90;92.70;;;;;;5010671;28;20401;-74
2022/09/28 09:54:21;;;;;;;5.63;2.20;;;27.80;92.70;;;;;;5052000;28;20081;-75
2022/09/28 09:57:11;;;;;;;8.75;2.17;;;28.00;93.30;;;;;;5030877;28;20043;-72
2022/09/28 09:59:46;;;;;;;6.75;2.08;;;28.10;93.00;;;;;;5034735;28;20049;-74
2022/09/28 10:02:32;;;;;;;10.13;2.70;;;27.80;92.90;;;;;;5028971;28;20075;-73
2022/09/28 10:05:12;;;;;;;10.85;2.47;;;27.50;92.90;;;;;;5033682;28;20158;-74
2022/09/28 10:07:47;;;;;;;4.35;1.73;;;27.60;93.20;;;;;;5033203;28;20100;-74
2022/09/28 10:10:43;;;;;;;4.97;1.55;;;27.60;93.40;;;;;;5034327;28;20086;-77
2022/09/28 10:13:13;;;;;;;5.68;1.90;;;27.60;93.40;;;;;;5047667;28;20059;-74
2022/09/28 10:15:46;;;;;;;5.28;3.10;;;27.60;93.40;;;;;;5033605;28;20455;-76
2022/09/28 10:18:20;;;;;;;9.40;1.92;;;27.80;93.50;;;;;;5049421;28;20138;-74
2022/09/28 10:21:10;;;;;;;8.23;2.88;;;27.80;93.20;;;;;;5051836;28;20048;-76
2022/09/28 10:23:59;;;;;;;7.65;1.60;;;28.00;93.40;;;;;;5051308;28;20059;-75
2022/09/28 10:26:36;;;;;;;9.18;1.88;;;27.90;93.40;;;;;;5050174;28;20132;-75
2022/09/28 10:29:14;;;;;;;5.50;2.72;;;27.80;93.70;;;;;;5034019;28;20446;-73
2022/09/28 10:31:47;;;;;;;9.00;2.10;;;27.60;93.60;;;;;;5034080;28;20527;-76
2022/09/28 10:34:31;;;;;;;6.05;1.88;;;27.40;92.50;;;;;;5019325;28;20068;-73
2022/09/28 10:37:09;;;;;;;3.10;1.67;;;27.40;92.70;;;;;;5034542;28;20052;-75
2022/09/28 10:40:28;;;;;;;7.47;1.95;;;27.30;92.90;;;;;;5027721;28;20053;-75
2022/09/28 10:43:14;;;;;;;3.92;1.88;;;27.50;93.10;;;;;;5033218;28;20507;-74
2022/09/28 10:45:44;;;;;;;7.47;2.55;;;27.50;93.60;;;;;;5017850;28;20139;-74
2022/09/28 10:48:53;;;;;;;4.63;1.65;;;27.60;94.10;;;;;;5050583;28;20143;-75
2022/09/28 10:51:52;;;;;;;4.90;2.35;;;27.50;93.80;;;;;;5034217;28;20033;-75
2022/09/28 10:54:29;;;;;;;9.85;1.90;;;27.40;94.50;;;;;;5033498;28;20048;-74
2022/09/28 10:56:58;;;;;;;3.78;2.30;;;27.40;94.50;;;;;;5033466;28;20130;-76
2022/09/28 10:59:40;;;;;;;4.60;1.92;;;27.40;93.90;;;;;;5032064;28;20060;-74
2022/09/28 11:02:25;;;;;;;4.03;1.85;;;27.30;93.00;;;;;;5043386;28;20052;-74
2022/09/28 11:05:00;;;;;;;2.72;1.50;;;27.20;93.00;;;;;;5016385;28;20059;-74
2022/09/28 11:07:42;;;;;;;5.00;1.85;;;27.30;93.40;;;;;;5048328;28;20118;-77
2022/09/28 11:10:29;;;;;;;5.95;2.20;;;27.20;93.40;;;;;;5032549;28;20120;-75
2022/09/28 11:13:08;;;;;;;5.28;1.55;;;27.10;92.80;;;;;;5016919;28;20049;-75
2022/09/28 11:15:42;;;;;;;4.75;1.27;;;27.10;92.70;;;;;;5016220;28;20839;-74
2022/09/28 11:18:34;;;;;;;3.55;1.30;;;27.10;91.80;;;;;;5032014;28;20049;-75
2022/09/28 11:21:15;;;;;;;4.20;1.60;;;27.30;91.40;;;;;;5031374;28;20059;-78
2022/09/28 11:24:00;;;;;;;3.88;1.33;;;27.30;91.50;;;;;;5016476;28;20434;-74
2022/09/28 11:26:43;;;;;;;6.85;1.35;;;27.40;91.90;;;;;;5015547;28;20408;-75
2022/09/28 11:29:42;;;;;;;4.97;1.73;;;27.50;91.70;;;;;;5017600;28;20049;-75
2022/09/28 11:32:40;;;;;;;6.80;1.92;;;27.60;91.00;;;;;;5047706;28;20044;-74
2022/09/28 11:35:24;;;;;;;5.15;1.85;;;27.60;90.30;;;;;;5040183;28;20036;-74
2022/09/28 11:38:25;;;;;;;4.07;1.80;;;27.40;90.80;;;;;;5027017;28;20041;-75
2022/09/28 11:41:37;;;;;;;6.28;1.92;;;27.40;91.40;;;;;;5046832;28;20041;-74
2022/09/28 11:44:14;;;;;;;7.75;2.65;;;27.10;91.60;;;;;;5007876;28;20053;-74
2022/09/28 11:46:45;;;;;;;3.58;1.33;;;27.30;91.70;;;;;;5031151;28;20052;-75
2022/09/28 11:49:18;;;;;;;7.05;1.85;;;27.30;91.90;;;;;;5038637;28;20518;-75
2022/09/28 11:51:48;;;;;;;5.03;1.55;;;27.30;92.30;;;;;;5031591;28;20460;-74
2022/09/28 11:54:32;;;;;;;6.93;2.00;;;27.30;92.10;;;;;;5038741;28;20056;-76
2022/09/28 11:57:04;;;;;;;6.47;2.13;;;27.20;91.90;;;;;;5030647;28;20957;-73
2022/09/28 11:59:38;;;;;;;7.53;1.55;;;27.20;91.30;;;;;;5010288;28;20135;-73
2022/09/28 12:02:18;;;;;;;4.25;2.00;;;26.90;91.80;;;;;;5030200;28;20116;-75
2022/09/28 12:05:01;;;;;;;5.57;2.13;;;26.90;92.10;;;;;;5040114;28;20049;-75
2022/09/28 12:07:53;;;;;;;5.60;1.45;;;27.00;92.10;;;;;;5046704;28;20100;-75
2022/09/28 12:10:50;;;;;;;9.38;1.98;;;27.00;92.80;;;;;;5021919;28;20052;-74
2022/09/28 12:13:34;;;;;;;7.60;2.17;;;27.20;93.00;;;;;;5023784;28;20053;-75
2022/09/28 12:16:03;;;;;;;;;;;27.10;92.60;;;;;;5047521;28;20102;-73
2022/09/28 12:18:54;;;;;;;3.88;1.58;;;27.20;92.70;;;;;;5039392;28;19929;-75
2022/09/28 12:21:32;;;;;;;5.95;1.75;;;27.20;93.10;;;;;;5021842;28;20119;-74
2022/09/28 12:24:14;;;;;;;7.80;1.70;;;27.10;92.80;;;;;;5015676;28;20041;-76
2022/09/28 12:27:03;;;;;;;6.88;1.73;;;27.10;92.80;;;;;;5025808;28;20052;-73
2022/09/28 12:29:47;;;;;;;3.55;1.40;;;27.10;92.70;;;;;;5013825;28;20551;-74
2022/09/28 12:32:30;;;;;;;8.90;2.20;;;27.10;93.10;;;;;;5016524;28;20045;-75
2022/09/28 12:34:57;;;;;;;8.77;1.98;;;27.00;93.20;;;;;;5021110;28;20084;-74
2022/09/28 12:37:51;;;;;;;4.70;2.13;;;26.80;93.40;;;;;;5045992;28;20584;-76
2022/09/28 12:40:36;;;;;;;4.57;2.40;;;26.60;94.00;;;;;;5046859;28;20529;-77
2022/09/28 12:43:41;;;;;;;6.68;1.80;;;26.50;94.40;;;;;;5027467;28;20049;-77
2022/09/28 12:46:41;;;;;;;10.75;2.58;;;26.40;94.60;;;;;;5046018;28;20137;-75
2022/09/28 12:49:30;;;;;;;4.45;1.40;;;26.30;95.20;;;;;;5041760;28;20140;-76
2022/09/28 12:52:48;;;;;;;4.15;1.60;;;26.30;95.60;;;;;;5032890;28;20060;-76
2022/09/28 12:55:57;;;;;;;9.48;1.88;;;26.40;95.40;;;;;;5036548;28;20073;-75
2022/09/28 12:58:35;;;;;;;3.47;1.92;;;26.40;94.60;;;;;;5017319;28;20479;-77
2022/09/28 13:01:24;;;;;;;3.63;1.50;;;26.20;94.50;;;;;;5006077;28;20049;-75
2022/09/28 13:04:01;;;;;;;6.75;1.67;;;26.30;94.70;;;;;;5023844;28;20144;-77
2022/09/28 13:07:07;;;;;;;4.07;1.58;;;26.40;95.00;;;;;;5048839;28;20063;-76
2022/09/28 13:09:46;;;;;;;8.45;1.95;;;26.30;94.90;;;;;;5007128;28;20050;-76
2022/09/28 13:12:14;;;;;;;3.90;1.98;;;26.20;94.60;;;;;;5006361;28;20046;-76
2022/09/28 13:14:49;;;;;;;6.05;1.80;;;26.10;95.10;;;;;;5031874;28;20080;-77
2022/09/28 13:17:25;;;;;;;6.43;1.60;;;26.20;95.00;;;;;;5049305;28;20043;-76
2022/09/28 13:19:57;;;;;;;7.57;2.13;;;26.20;95.30;;;;;;5041939;28;20078;-76
2022/09/28 13:22:39;;;;;;;6.25;2.13;;;26.20;95.10;;;;;;5066537;28;20143;-76
2022/09/28 13:25:16;;;;;;;6.15;2.10;;;26.20;95.00;;;;;;5040900;28;20072;-79
2022/09/28 13:27:52;;;;;;;5.57;1.77;;;26.10;95.10;;;;;;5015926;28;20841;-76
2022/09/28 13:30:20;;;;;;;6.15;2.35;;;26.00;95.10;;;;;;5017566;28;20047;-74
2022/09/28 13:32:49;;;;;;;4.13;2.05;;;26.00;94.60;;;;;;5063639;28;20067;-74
2022/09/28 13:35:20;;;;;;;7.78;1.95;;;25.90;94.80;;;;;;5063457;28;20131;-76
2022/09/28 13:38:17;;;;;;;3.90;1.75;;;25.80;95.00;;;;;;5047523;28;20044;-75
2022/09/28 13:41:03;;;;;;;7.60;2.67;;;25.80;95.30;;;;;;5039311;28;20044;-75
2022/09/28 13:43:47;;;;;;;6.95;1.55;;;25.80;95.10;;;;;;5044217;28;20045;-74
2022/09/28 13:46:30;;;;;;;6.15;1.83;;;26.00;94.70;;;;;;5034145;28;20099;-75
2022/09/28 13:48:58;;;;;;;3.67;1.20;;;26.10;94.40;;;;;;5010579;28;20053;-76
2022/09/28 13:51:39;;;;;;;5.90;2.03;;;26.00;94.00;;;;;;5049767;28;20059;-75
2022/09/28 13:54:29;;;;;;;4.55;2.17;;;25.80;94.20;;;;;;5028919;28;20044;-74
2022/09/28 13:57:17;;;;;;;4.88;1.90;;;25.90;94.20;;;;;;5034101;28;20053;-74
2022/09/28 14:00:07;;;;;;;10.68;2.35;;;25.80;94.40;;;;;;5049129;28;20055;-73